Wednesday, April 25, 2018, 1:03 AM EDT
Back to Local

KBWI, Baltimore-washington International

Location: Glen Burnie, MD, United States Lat: 39.167
Local Time: 1:03 AM EDT ( 5:03 GMT) Lon: -76.683
Time Zone: US/Eastern Elev: 147 ft

Show me the last for .
Show Coded

Time T Td Feel RH Dir Speed Gust Alt SLP Vis Weather Sky Remarks
2018-04-24 23:54 54 54 - 100 70° 15 - 29.95 29.95 3 +RA BR OVC005 1-hr Precip Total: 0.10"
2018-04-24 22:54 53 53 - 100 70° 17 - 30.00 29.99 2 -RA BR OVC005 1-hr Precip Total: 0.03"
6-hr Precip Total (11pm): 0.11"
2018-04-24 22:18 53 53 - 100 70° 17 - 30.02 - 2 -RA BR OVC005 1-hr Precip Total: 0.01"
2018-04-24 21:54 53 53 - 100 60° 17 - 30.04 30.03 3 -RA BR OVC006 1-hr Precip Total: 0.02"
2018-04-24 20:54 53 53 - 100 80° 15 - 30.06 30.06 4 -RA BR BKN008 BKN017 OVC039 1-hr Precip Total: 0.06"
2018-04-24 20:45 53 53 - 100 80° 15 - 30.07 - 3 -RA BR BKN008 BKN016 OVC036 1-hr Precip Total: 0.06"
2018-04-24 20:39 53 53 - 100 80° 14 - 30.07 - 3 -RA BR SCT008 BKN016 OVC033 1-hr Precip Total: 0.06"
2018-04-24 20:15 53 53 - 100 90° 16 - 30.08 - 2 RA BR FEW008 SCT012 OVC021 1-hr Precip Total: 0.04"
2018-04-24 19:54 54 53 - 96 70° 14 - 30.07 30.07 2 -RA BR SCT022 BKN027 OVC049 1-hr Precip Total: 0.05"
6-hr Precip Total (8pm): 0.07"
6-hr Min Temp (8pm): 54.0°F
6-hr Max Temp (8pm): 64.0°F
2018-04-24 19:36 55 52 - 89 80° 14 - 30.07 - 2 -RA BR FEW030 BKN039 OVC048 1-hr Precip Total: 0.02"
2018-04-24 18:54 57 52 - 83 90° 16 - 30.08 30.08 5 -RA BKN035 BKN047 OVC055 1-hr Precip Total: 0.01"
2018-04-24 17:54 58 52 - 80 90° 12 - 30.09 30.09 8 -RA BKN041 BKN047 OVC075 1-hr Precip Total: 0.01"
2018-04-24 16:54 61 50 - 67 110° 14 - 30.10 30.10 10 -RA BKN043 OVC065 1-hr Precip Total: Trace
6-hr Precip Total (5pm): 0.00"
2018-04-24 15:54 62 48 - 60 120° 15 - 30.13 30.13 10 BKN045 OVC065 None
2018-04-24 14:54 63 47 - 55 110° 17 22 30.16 30.16 10 BKN042 OVC065 None
2018-04-24 13:54 63 46 - 53 120° 13 23 30.20 30.19 10 BKN043 OVC060 Peak wind: 29 mph (26 kts) from 120° at 29 min
6-hr Min Temp (2pm): 53.1°F
6-hr Max Temp (2pm): 63.0°F
2018-04-24 12:54 63 47 - 55 110° 22 26 30.22 30.22 10 SCT039 BKN060 OVC100 None
2018-04-24 11:54 62 47 - 57 120° 18 25 30.25 30.25 10 SCT039 SCT060 OVC100 None
2018-04-24 10:54 60 47 - 61 100° 14 - 30.27 30.27 10 FEW042 BKN060 OVC100 None
2018-04-24 09:54 57 45 - 63 90° 13 - 30.28 30.28 10 FEW038 SCT060 OVC100 None
2018-04-24 08:54 55 44 - 66 100° 12 - 30.29 30.29 10 FEW038 BKN060 OVC100 None
2018-04-24 07:54 53 42 - 66 90° 9 - 30.30 30.30 10 SCT038 OVC060 6-hr Min Temp (8am): 50.0°F
6-hr Max Temp (8am): 53.1°F
2018-04-24 06:54 53 40 - 60 80° 8 - 30.31 30.31 10 BKN038 OVC050 None
2018-04-24 05:54 51 39 - 63 90° 8 - 30.31 30.31 10 BKN046 BKN140 OVC180 None
2018-04-24 04:54 51 39 - 63 90° 8 - 30.31 30.31 10 FEW100 SCT150 BKN180 None
2018-04-24 03:54 50 37 47 60 90° 7 - 30.33 30.33 10 SCT180 BKN240 None
2018-04-24 02:54 50 37 47 60 90° 7 - 30.33 30.32 10 SCT150 OVC210 None
2018-04-24 01:54 52 35 - 52 100° 5 - 30.34 30.34 10 SCT150 OVC210 6-hr Min Temp (2am): 50.0°F
6-hr Max Temp (2am): 61.0°F

Support USWX by starting your Amazon purchase here.